Terminal Aerodrome Forecast
Issued by NWS

Home | Current Version | Previous Version | Text Only | Print | Product List | Glossary On
Versions: 1 2 3 4 5 6 7 8 9 10 11 12 13 14 15 16 17 18 19
098
FTUS45 KRIW 310301 AAB
TAFCPR
TAF AMD
KCPR 310301Z 3103/3124 01012G20KT P6SM VCSH BKN022
     FM311000 36008KT P6SM SCT022 BKN040
     FM311600 31014G22KT P6SM SCT060=

USA.gov is the U.S. government's official web portal to all federal, state and local government web resources and services.